RJKA Airport Information

Runway Information
Runway 03 Length 6560 ft width 150 ft
Elevation 27 ft Threshold ft Heading 26
Runway 21 Length 6560 ft Width 150 ft
Elevation 14 ft Threshold ft Heading 206
Airport Frequencies
Type A/G Name RDO Frequency 118.15 MHZ
Type ACC Name NAHA CON Frequency 132.3 MHZ
Type INFO Name NAHA INFO Frequency 134.8 MHZ
Airport Navaids
Type VORTAC Name Amami Frequency 115500 KHZ
Type VOR-DME Name Kasari Frequency 113950 KHZ
Airport Weather Information & NOTAM
ADDS - METARS form results

(0844 UTC 25 June 2022)
Data provider http://aviationweather.gov/metar/data/
 
METAR text: RJKA 250800Z 23006KT 9999 FEW015 FEW020CB BKN/// 29/27 Q1013
Conditions at: RJKA (AMAMI AIRPORT , JP) observed 0800 UTC 25 June 2022
Temperature: 29.0°C (84°F)
Dewpoint: 27.0°C (81°F) [RH = 89%]
Pressure (altimeter): 29.91 inches Hg (1013.0 mb)
Winds: from the SW (230 degrees) at 7 MPH (6 knots; 3.1 m/s)
Visibility: 6 or more miles (10+ km)
Ceiling: at least 12,000 feet AGL
Clouds: few clouds at 1500 feet AGL
few clouds at 2000 feet AGL
Weather: no significant weather observed at this time